createdAt,value
2023-03-22T00:01:23.753Z,9.40
2023-03-22T00:03:52.702Z,9.30
2023-03-22T00:06:20.443Z,9.40
2023-03-22T00:08:51.240Z,9.30
2023-03-22T00:11:19.557Z,9.30
2023-03-22T00:13:47.532Z,9.40
2023-03-22T00:16:17.579Z,9.30
2023-03-22T00:18:45.623Z,9.30
2023-03-22T00:21:15.584Z,9.30
2023-03-22T00:23:43.017Z,9.30
2023-03-22T00:26:13.944Z,9.30
2023-03-22T00:28:41.878Z,9.20
2023-03-22T00:31:09.744Z,9.20
2023-03-22T00:33:37.654Z,9.20
2023-03-22T00:36:11.111Z,9.20
2023-03-22T00:38:42.946Z,9.20
2023-03-22T00:41:19.489Z,9.20
2023-03-22T00:43:48.080Z,9.20
2023-03-22T00:46:17.005Z,9.10
2023-03-22T00:48:44.056Z,9.00
2023-03-22T00:51:12.465Z,9.00
2023-03-22T00:53:42.811Z,9.00
2023-03-22T00:56:14.330Z,9.00
2023-03-22T00:59:05.567Z,9.00
2023-03-22T01:01:32.834Z,9.00
2023-03-22T01:04:00.178Z,9.00
2023-03-22T01:06:27.713Z,9.00
2023-03-22T01:08:55.302Z,9.00
2023-03-22T01:11:22.996Z,9.10
2023-03-22T01:13:50.439Z,9.00
2023-03-22T01:16:18.306Z,9.00
2023-03-22T01:18:45.549Z,9.00
2023-03-22T01:21:13.529Z,9.10
2023-03-22T01:23:40.942Z,9.10
2023-03-22T01:26:08.012Z,9.10
2023-03-22T01:28:35.024Z,9.20
2023-03-22T01:31:03.213Z,9.20
2023-03-22T01:33:31.405Z,9.20
2023-03-22T01:35:59.581Z,9.30
2023-03-22T01:38:27.951Z,9.30
2023-03-22T01:40:58.782Z,9.40
2023-03-22T01:43:29.044Z,9.40
2023-03-22T01:45:57.941Z,9.40
2023-03-22T01:48:55.822Z,9.50
2023-03-22T01:51:28.755Z,9.50
2023-03-22T01:54:40.656Z,9.60
2023-03-22T01:57:21.159Z,9.70
2023-03-22T01:59:50.353Z,9.70
2023-03-22T02:02:40.677Z,9.80
2023-03-22T02:05:22.326Z,9.80
2023-03-22T02:07:50.937Z,9.90
2023-03-22T02:10:24.892Z,10.00
2023-03-22T02:13:22.610Z,10.00
2023-03-22T02:16:39.426Z,10.00
2023-03-22T02:19:45.768Z,10.00
2023-03-22T02:22:32.093Z,10.00
2023-03-22T02:25:21.168Z,10.00
2023-03-22T02:28:06.667Z,10.10
2023-03-22T02:31:14.720Z,10.20
2023-03-22T02:34:07.061Z,10.20
2023-03-22T02:36:46.101Z,10.30
2023-03-22T02:39:28.485Z,10.20
2023-03-22T02:42:13.374Z,10.30
2023-03-22T02:44:43.896Z,10.30
2023-03-22T02:47:42.691Z,10.30
2023-03-22T02:50:20.866Z,10.30
2023-03-22T02:52:56.154Z,10.40
2023-03-22T02:55:39.471Z,10.30
2023-03-22T02:58:39.441Z,10.30
2023-03-22T03:01:15.603Z,10.30
2023-03-22T03:03:48.235Z,10.40
2023-03-22T03:06:19.774Z,10.30
2023-03-22T03:08:50.877Z,10.30
2023-03-22T03:11:18.720Z,10.30
2023-03-22T03:13:49.185Z,10.30
2023-03-22T03:16:20.782Z,10.30
2023-03-22T03:18:57.462Z,10.30
2023-03-22T03:21:37.513Z,10.30
2023-03-22T03:24:17.709Z,10.20
2023-03-22T03:27:04.746Z,10.20
2023-03-22T03:29:46.578Z,10.20
2023-03-22T03:32:26.021Z,10.20
2023-03-22T03:34:59.582Z,10.10
2023-03-22T03:37:47.261Z,10.10
2023-03-22T03:40:24.954Z,10.10
2023-03-22T03:42:54.298Z,10.10
2023-03-22T03:45:22.263Z,10.10
2023-03-22T03:47:57.024Z,10.00
2023-03-22T03:50:26.169Z,10.00
2023-03-22T03:52:56.386Z,10.00
2023-03-22T03:55:24.685Z,9.90
2023-03-22T03:57:51.694Z,9.90
2023-03-22T04:00:19.169Z,9.90
2023-03-22T04:03:06.445Z,9.90
2023-03-22T04:05:53.379Z,9.90
2023-03-22T04:08:20.455Z,9.80
2023-03-22T04:10:51.979Z,9.80
2023-03-22T04:13:24.864Z,9.80
2023-03-22T04:15:55.265Z,9.80
2023-03-22T04:18:23.059Z,9.80
2023-03-22T04:20:53.742Z,9.80
2023-03-22T04:23:23.575Z,9.80
2023-03-22T04:25:51.161Z,9.80
2023-03-22T04:28:30.040Z,9.80
2023-03-22T04:30:57.478Z,9.80
2023-03-22T04:33:47.406Z,9.80
2023-03-22T04:36:39.334Z,9.80
2023-03-22T04:39:24.686Z,9.80
2023-03-22T04:41:59.606Z,9.80
2023-03-22T04:44:27.197Z,9.80
2023-03-22T04:46:54.230Z,9.80
2023-03-22T04:49:21.916Z,9.80
2023-03-22T04:51:49.070Z,9.80
2023-03-22T04:54:51.102Z,9.70
2023-03-22T04:57:18.146Z,9.70
2023-03-22T04:59:47.917Z,9.70
2023-03-22T05:02:14.821Z,9.70
2023-03-22T05:04:43.840Z,9.70
2023-03-22T05:07:20.526Z,9.80
2023-03-22T05:09:52.514Z,9.70
2023-03-22T05:12:19.708Z,9.80
2023-03-22T05:14:52.339Z,9.70
2023-03-22T05:17:23.882Z,9.70
2023-03-22T05:19:54.626Z,9.70
2023-03-22T05:22:22.514Z,9.70
2023-03-22T05:24:51.316Z,9.70
2023-03-22T05:27:31.293Z,9.70
2023-03-22T05:30:11.943Z,9.70
2023-03-22T05:32:50.374Z,9.70
2023-03-22T05:35:24.080Z,9.60
2023-03-22T05:37:54.330Z,9.70
2023-03-22T05:40:22.137Z,9.70
2023-03-22T05:42:49.773Z,9.70
2023-03-22T05:45:22.181Z,9.60
2023-03-22T05:47:59.141Z,9.70
2023-03-22T05:50:27.699Z,9.70
2023-03-22T05:52:54.698Z,9.70
2023-03-22T05:55:30.317Z,9.70
2023-03-22T05:58:02.897Z,9.70
2023-03-22T06:00:32.325Z,9.70
2023-03-22T06:03:18.315Z,9.60
2023-03-22T06:05:54.923Z,9.70
2023-03-22T06:08:34.103Z,9.70
2023-03-22T06:11:01.431Z,9.70
2023-03-22T06:13:28.464Z,9.70
2023-03-22T06:15:56.050Z,9.70
2023-03-22T06:18:25.592Z,9.70
2023-03-22T06:21:02.020Z,9.80
2023-03-22T06:23:29.187Z,9.80
2023-03-22T06:25:56.302Z,9.90
2023-03-22T06:28:26.609Z,9.90
2023-03-22T06:30:54.916Z,10.00
2023-03-22T06:33:29.788Z,10.10
2023-03-22T06:36:07.178Z,10.10
2023-03-22T06:38:49.210Z,10.20
2023-03-22T06:41:16.085Z,10.20
2023-03-22T06:43:43.098Z,10.20
2023-03-22T06:46:23.715Z,10.20
2023-03-22T06:49:00.314Z,10.20
2023-03-22T06:51:27.471Z,10.20
2023-03-22T06:53:55.727Z,10.20
2023-03-22T06:56:23.083Z,10.20
2023-03-22T06:58:54.649Z,10.20
2023-03-22T07:01:22.102Z,10.20
2023-03-22T07:03:49.844Z,10.20
2023-03-22T07:06:18.888Z,10.20
2023-03-22T07:08:50.875Z,10.30
2023-03-22T07:11:23.014Z,10.30
2023-03-22T07:13:58.665Z,10.30
2023-03-22T07:16:32.332Z,10.30
2023-03-22T07:19:02.027Z,10.40
2023-03-22T07:21:29.163Z,10.40
2023-03-22T07:24:01.630Z,10.40
2023-03-22T07:26:30.863Z,10.40
2023-03-22T07:28:59.748Z,10.40
2023-03-22T07:31:31.619Z,10.50
2023-03-22T07:34:04.774Z,10.50
2023-03-22T07:36:38.381Z,10.50
2023-03-22T07:39:09.318Z,10.60
2023-03-22T07:41:40.932Z,10.70
2023-03-22T07:44:25.926Z,10.70
2023-03-22T07:47:30.630Z,10.80
2023-03-22T07:50:23.679Z,10.80
2023-03-22T07:52:56.093Z,10.80
2023-03-22T07:55:23.109Z,10.80
2023-03-22T07:57:51.244Z,10.80
2023-03-22T08:00:19.533Z,10.90
2023-03-22T08:02:56.753Z,10.90
2023-03-22T08:05:49.823Z,11.00
2023-03-22T08:08:17.545Z,11.10
2023-03-22T08:10:50.806Z,11.20
2023-03-22T08:13:18.269Z,11.20
2023-03-22T08:15:45.879Z,11.30
2023-03-22T08:18:13.207Z,11.30
2023-03-22T08:20:41.355Z,11.40
2023-03-22T08:23:16.304Z,11.30
2023-03-22T08:26:03.339Z,11.30
2023-03-22T08:28:34.472Z,11.30
2023-03-22T08:31:01.665Z,11.30
2023-03-22T08:33:29.086Z,11.40
2023-03-22T08:36:07.426Z,11.40
2023-03-22T08:38:38.703Z,11.40
2023-03-22T08:41:07.151Z,11.40
2023-03-22T08:43:34.320Z,11.50
2023-03-22T08:46:01.443Z,11.50
2023-03-22T08:48:30.831Z,11.50
2023-03-22T08:51:22.278Z,11.50
2023-03-22T08:54:07.006Z,11.50
2023-03-22T08:56:59.168Z,11.50
2023-03-22T09:00:02.067Z,11.50
2023-03-22T09:02:39.068Z,11.50
2023-03-22T09:05:06.649Z,11.50
2023-03-22T09:07:34.139Z,11.60
2023-03-22T09:10:19.419Z,11.60
2023-03-22T09:12:49.441Z,11.60
2023-03-22T09:15:16.825Z,11.70
2023-03-22T09:17:48.058Z,11.60
2023-03-22T09:20:15.753Z,11.60
2023-03-22T09:22:45.949Z,11.60
2023-03-22T09:25:16.015Z,11.60
2023-03-22T09:27:46.481Z,11.60
2023-03-22T09:30:13.856Z,11.60
2023-03-22T09:32:41.542Z,11.60
2023-03-22T09:35:11.131Z,11.60
2023-03-22T09:37:53.543Z,11.60
2023-03-22T09:40:25.370Z,11.60
2023-03-22T09:42:57.664Z,11.60
2023-03-22T09:45:34.021Z,11.60
2023-03-22T09:48:03.728Z,11.50
2023-03-22T09:50:33.157Z,11.50
2023-03-22T09:53:01.155Z,11.40
2023-03-22T09:55:52.353Z,11.40
2023-03-22T09:58:29.414Z,11.40
2023-03-22T10:01:31.384Z,11.40
2023-03-22T10:04:26.668Z,11.30
2023-03-22T10:07:40.313Z,11.20
2023-03-22T10:10:20.257Z,11.10
2023-03-22T10:12:54.089Z,11.10
2023-03-22T10:15:41.272Z,11.00
2023-03-22T10:18:15.907Z,10.90
2023-03-22T10:20:52.215Z,10.90
2023-03-22T10:23:27.412Z,10.90
2023-03-22T10:25:58.866Z,10.90
2023-03-22T10:28:34.820Z,10.90
2023-03-22T10:31:04.413Z,10.90
2023-03-22T10:33:40.007Z,10.90
2023-03-22T10:36:13.179Z,10.90
2023-03-22T10:38:49.688Z,10.90
2023-03-22T10:41:19.376Z,10.90
2023-03-22T10:43:50.467Z,10.90
2023-03-22T10:46:23.622Z,10.90
2023-03-22T10:48:54.251Z,10.90
2023-03-22T10:51:29.779Z,10.90
2023-03-22T10:53:58.291Z,11.00
2023-03-22T10:56:25.651Z,11.00
2023-03-22T10:58:54.708Z,11.10
2023-03-22T11:01:39.977Z,11.20
2023-03-22T11:04:14.443Z,11.30
2023-03-22T11:06:52.360Z,11.30
2023-03-22T11:09:23.736Z,11.40
2023-03-22T11:11:56.700Z,11.50
2023-03-22T11:14:27.886Z,11.50
2023-03-22T11:17:07.073Z,11.40
2023-03-22T11:19:36.629Z,11.40
2023-03-22T11:22:07.822Z,11.40
2023-03-22T11:24:35.748Z,11.40
2023-03-22T11:27:06.969Z,11.40
2023-03-22T11:29:43.348Z,11.40
2023-03-22T11:32:30.231Z,11.40
2023-03-22T11:35:20.000Z,11.40
2023-03-22T11:37:49.755Z,11.40
2023-03-22T11:40:29.314Z,11.50
2023-03-22T11:43:20.723Z,11.50
2023-03-22T11:45:51.937Z,11.50
2023-03-22T11:48:23.400Z,11.60
2023-03-22T11:50:55.868Z,11.60
2023-03-22T11:53:26.293Z,11.60
2023-03-22T11:55:57.882Z,11.60
2023-03-22T11:58:28.334Z,11.70
2023-03-22T12:00:59.704Z,11.70
2023-03-22T12:03:39.878Z,11.70
2023-03-22T12:06:24.413Z,11.70
2023-03-22T12:09:07.912Z,11.70
2023-03-22T12:11:41.867Z,11.70
2023-03-22T12:14:30.020Z,11.70
2023-03-22T12:17:06.961Z,11.80
2023-03-22T12:19:51.317Z,11.80
2023-03-22T12:22:31.158Z,11.80
2023-03-22T12:25:00.207Z,11.80
2023-03-22T12:27:37.883Z,11.80
2023-03-22T12:30:14.147Z,11.80
2023-03-22T12:32:49.160Z,11.80
2023-03-22T12:35:29.667Z,11.80
2023-03-22T12:38:00.344Z,11.80
2023-03-22T12:40:37.254Z,11.80
2023-03-22T12:43:08.382Z,11.80
2023-03-22T12:45:42.881Z,11.80
2023-03-22T12:48:41.427Z,11.80
2023-03-22T12:51:11.975Z,11.80
2023-03-22T12:54:00.428Z,11.80
2023-03-22T12:56:44.396Z,11.80
2023-03-22T12:59:29.129Z,11.80
2023-03-22T13:02:16.843Z,11.90
2023-03-22T13:04:46.811Z,11.90
2023-03-22T13:07:13.730Z,11.90
2023-03-22T13:09:51.138Z,11.90
2023-03-22T13:12:18.558Z,11.90
2023-03-22T13:15:00.295Z,11.80
2023-03-22T13:17:27.585Z,11.90
2023-03-22T13:19:58.499Z,11.90
2023-03-22T13:22:50.460Z,11.90
2023-03-22T13:25:18.889Z,11.90
2023-03-22T13:27:46.050Z,11.90
2023-03-22T13:30:24.826Z,11.90
2023-03-22T13:33:07.238Z,11.90
2023-03-22T13:35:51.319Z,11.90
2023-03-22T13:38:27.711Z,12.00
2023-03-22T13:41:06.557Z,12.00
2023-03-22T13:43:39.683Z,12.00
2023-03-22T13:46:12.297Z,12.00
2023-03-22T13:48:49.605Z,12.00
2023-03-22T13:51:34.726Z,12.00
2023-03-22T13:54:13.738Z,12.00
2023-03-22T13:56:43.805Z,12.10
2023-03-22T13:59:30.027Z,12.10
2023-03-22T14:02:27.793Z,12.00
2023-03-22T14:05:17.671Z,12.00
2023-03-22T14:07:52.905Z,11.90
2023-03-22T14:10:28.253Z,11.90
2023-03-22T14:13:19.398Z,11.80
2023-03-22T14:15:50.805Z,11.80
2023-03-22T14:18:30.185Z,11.80
2023-03-22T14:21:30.569Z,11.80
